Terminal Aerodrome Forecast
Issued by NWS Blacksburg, VA

Current Version | Previous Version | Graphics & Text | Print | Product List | Glossary On
Versions: 1 2 3 4 5 6 7 8 9 10 11 12 13 14 15 16 17 18 19 20 21 22 23 24 25 26 27 28 29 30 31 32 33 34 35
000
FTUS41 KRNK 282340
TAFBLF
TAF
KBLF 282340Z 2900/2924 VRB04KT P6SM BKN250
     FM290800 16005KT P6SM BKN150 OVC250
     FM291500 21012G21KT P6SM -SHRA BKN050 OVC100
      TEMPO 2916/2920 5SM -SHRA BKN035 OVC050
     FM292000 23015G25KT P6SM -SHRA BKN025 OVC050=

USA.gov is the U.S. government's official web portal to all federal, state and local government web resources and services.